Time;durP1;ratioP1;P1;durP2;ratioP2;P2;SDS_P1;SDS_P2;PMS_P1;PMS_P2;Temp;Humidity;BMP_temperature;BMP_pressure;BME280_temperature;BME280_humidity;BME280_pressure;Samples;Min_cycle;Max_cycle;Signal;HPM_P1;HPM_P2
2022/10/13 00:00:49;;;;;;;14.43;6.78;;;8.40;99.90;;;;;;5076444;28;20468;-77
2022/10/13 00:03:15;;;;;;;16.55;7.05;;;8.30;99.90;;;;;;5076446;28;20056;-77
2022/10/13 00:05:46;;;;;;;15.10;8.15;;;8.40;99.90;;;;;;5076308;28;20431;-77
2022/10/13 00:08:14;;;;;;;14.50;6.88;;;8.40;99.90;;;;;;5076002;28;20480;-76
2022/10/13 00:10:40;;;;;;;13.43;7.40;;;8.50;99.90;;;;;;5075072;28;20055;-78
2022/10/13 00:13:07;;;;;;;13.85;7.05;;;8.40;99.90;;;;;;5076142;28;20052;-77
2022/10/13 00:15:37;;;;;;;19.40;8.25;;;8.40;99.90;;;;;;5076169;28;20041;-78
2022/10/13 00:18:03;;;;;;;16.67;8.05;;;8.30;99.90;;;;;;5076114;28;20411;-78
2022/10/13 00:20:29;;;;;;;12.98;7.32;;;8.40;99.90;;;;;;5076507;28;20047;-76
2022/10/13 00:22:54;;;;;;;15.52;7.53;;;8.40;99.90;;;;;;5076078;28;20476;-76
2022/10/13 00:25:20;;;;;;;17.30;7.60;;;8.40;99.90;;;;;;5076020;28;20065;-79
2022/10/13 00:27:46;;;;;;;12.38;6.90;;;8.40;99.90;;;;;;5075995;28;20488;-77
2022/10/13 00:30:11;;;;;;;13.20;7.97;;;8.40;99.90;;;;;;5075909;28;20157;-77
2022/10/13 00:32:37;;;;;;;18.23;7.45;;;8.40;99.90;;;;;;5075750;28;20036;-77
2022/10/13 00:35:02;;;;;;;15.93;7.78;;;8.40;99.90;;;;;;5075817;28;20048;-76
2022/10/13 00:37:28;;;;;;;17.42;7.18;;;8.40;99.90;;;;;;5076224;28;20535;-77
2022/10/13 00:39:54;;;;;;;17.33;8.82;;;8.40;99.90;;;;;;5075299;28;20036;-77
2022/10/13 00:42:19;;;;;;;16.10;6.43;;;8.50;99.90;;;;;;5075695;28;20094;-75
2022/10/13 00:45:03;;;;;;;17.30;8.27;;;8.50;99.90;;;;;;5075514;28;20090;-79
2022/10/13 00:47:40;;;;;;;17.00;7.28;;;8.50;99.90;;;;;;5075542;28;20098;-76
2022/10/13 00:50:10;;;;;;;14.10;7.18;;;8.40;99.90;;;;;;5075627;28;20051;-79
2022/10/13 00:52:39;;;;;;;16.98;7.70;;;8.50;99.90;;;;;;5075640;28;20400;-79
2022/10/13 00:55:06;;;;;;;20.90;8.23;;;8.50;99.90;;;;;;5075271;28;20071;-77
2022/10/13 00:57:32;;;;;;;17.55;7.68;;;8.60;99.90;;;;;;5075355;28;20079;-79
2022/10/13 01:00:00;;;;;;;16.33;7.78;;;8.60;99.90;;;;;;5075283;28;20041;-77
2022/10/13 01:02:31;;;;;;;12.25;6.90;;;8.60;99.90;;;;;;5075674;28;20045;-76
2022/10/13 01:04:58;;;;;;;13.35;7.85;;;8.60;99.90;;;;;;5075214;28;20476;-78
2022/10/13 01:07:24;;;;;;;;;;;8.60;99.90;;;;;;5075663;28;20120;-75
2022/10/13 01:09:50;;;;;;;13.25;7.38;;;8.60;99.90;;;;;;5075136;28;19975;-78
2022/10/13 01:12:49;;;;;;;12.38;7.38;;;8.60;99.90;;;;;;5075050;28;20117;-79
2022/10/13 01:15:23;;;;;;;13.80;6.82;;;8.70;99.90;;;;;;5075047;28;20101;-77
2022/10/13 01:18:00;;;;;;;11.93;7.60;;;8.70;99.90;;;;;;5074939;28;20044;-78
2022/10/13 01:21:05;;;;;;;17.70;7.40;;;8.70;99.90;;;;;;5075074;28;20084;-76
2022/10/13 01:24:04;;;;;;;15.43;7.85;;;8.70;99.90;;;;;;5074897;28;20113;-79
2022/10/13 01:27:01;;;;;;;14.85;8.32;;;8.70;99.90;;;;;;5074137;28;20044;-76
2022/10/13 01:30:04;;;;;;;10.88;6.65;;;8.70;99.90;;;;;;5074720;28;20089;-77
2022/10/13 01:32:36;;;;;;;16.13;8.27;;;8.70;99.90;;;;;;5074398;28;20510;-78
2022/10/13 01:35:38;;;;;;;13.95;7.65;;;8.70;99.90;;;;;;5074238;28;20515;-78
2022/10/13 01:38:06;;;;;;;15.30;8.05;;;8.70;99.90;;;;;;5061486;28;20065;-79
2022/10/13 01:40:45;;;;;;;17.50;8.10;;;8.70;99.90;;;;;;5074750;28;20084;-76
2022/10/13 01:43:19;;;;;;;17.70;8.50;;;8.70;99.90;;;;;;5074399;28;20048;-78
2022/10/13 01:45:54;;;;;;;14.95;8.50;;;9.20;99.90;;;;;;5074532;28;20400;-77
2022/10/13 01:48:20;;;;;;;15.13;8.25;;;8.60;99.90;;;;;;5074382;28;20091;-78
2022/10/13 01:50:46;;;;;;;15.02;8.65;;;8.60;99.90;;;;;;5074302;28;20080;-79
2022/10/13 01:53:13;;;;;;;16.10;8.73;;;8.60;99.90;;;;;;5073929;28;20049;-77
2022/10/13 01:55:57;;;;;;;14.23;7.43;;;8.60;99.90;;;;;;5074219;28;20057;-77
2022/10/13 01:58:26;;;;;;;14.43;8.25;;;8.60;99.90;;;;;;5074117;28;20048;-77
2022/10/13 02:01:16;;;;;;;12.82;8.15;;;8.60;99.90;;;;;;5074541;28;20044;-78
2022/10/13 02:04:19;;;;;;;16.77;8.57;;;8.60;99.90;;;;;;5074474;28;20044;-75
2022/10/13 02:06:56;;;;;;;12.95;8.30;;;8.60;99.90;;;;;;5073957;28;20084;-78
2022/10/13 02:09:34;;;;;;;;;;;8.70;99.90;;;;;;5074482;28;20496;-77
2022/10/13 02:12:10;;;;;;;16.70;8.25;;;8.70;99.90;;;;;;5073896;28;19920;-78
2022/10/13 02:14:39;;;;;;;14.83;7.93;;;8.70;99.90;;;;;;5073333;28;20127;-76
2022/10/13 02:17:05;;;;;;;14.63;7.95;;;9.30;99.90;;;;;;5073995;28;20514;-75
2022/10/13 02:19:35;;;;;;;14.20;8.45;;;8.70;99.90;;;;;;5073727;28;20083;-77
2022/10/13 02:22:01;;;;;;;16.33;9.35;;;8.60;99.90;;;;;;5073617;28;20507;-76
2022/10/13 02:24:28;;;;;;;15.95;7.85;;;8.70;99.90;;;;;;5073806;28;20040;-79
2022/10/13 02:26:53;;;;;;;15.55;9.15;;;8.70;99.90;;;;;;5074025;28;20377;-79
2022/10/13 02:29:19;;;;;;;15.60;9.35;;;8.70;99.90;;;;;;5073814;28;20098;-78
2022/10/13 02:31:45;;;;;;;14.35;7.60;;;8.70;99.90;;;;;;5073794;28;20387;-75
2022/10/13 02:34:12;;;;;;;16.90;9.23;;;8.70;99.90;;;;;;5073678;28;20106;-78
2022/10/13 02:36:38;;;;;;;16.55;8.38;;;8.70;99.90;;;;;;5073714;28;20131;-78
2022/10/13 02:39:06;;;;;;;16.55;8.27;;;9.10;99.90;;;;;;5074274;28;20048;-77
2022/10/13 02:41:31;;;;;;;17.55;9.07;;;8.70;99.90;;;;;;5073721;28;20078;-79
2022/10/13 02:43:57;;;;;;;14.88;9.23;;;8.70;99.90;;;;;;5072247;28;20052;-75
2022/10/13 02:46:23;;;;;;;13.27;7.45;;;8.70;99.90;;;;;;5073624;28;20392;-78
2022/10/13 02:48:48;;;;;;;13.60;8.57;;;8.70;99.90;;;;;;5073339;28;20114;-77
2022/10/13 02:51:14;;;;;;;15.10;8.05;;;9.00;99.90;;;;;;5073501;28;20052;-79
2022/10/13 02:53:39;;;;;;;17.05;8.30;;;9.30;99.90;;;;;;5073321;28;20454;-77
2022/10/13 02:56:06;;;;;;;15.98;8.23;;;8.60;99.90;;;;;;5073560;28;20041;-77
2022/10/13 02:58:32;;;;;;;15.90;8.77;;;8.60;99.90;;;;;;5073436;28;20053;-77
2022/10/13 03:01:09;;;;;;;14.67;8.43;;;9.10;99.90;;;;;;5073436;28;20506;-79
2022/10/13 03:03:35;;;;;;;17.45;8.70;;;8.60;99.90;;;;;;5073398;28;20051;-76
2022/10/13 03:06:01;;;;;;;18.30;8.93;;;8.60;99.90;;;;;;5073445;28;20044;-80
2022/10/13 03:08:27;;;;;;;15.13;9.40;;;8.60;99.90;;;;;;5073414;28;20052;-77
2022/10/13 03:10:53;;;;;;;18.10;9.38;;;8.70;99.90;;;;;;5073621;28;20048;-77
2022/10/13 03:13:18;;;;;;;20.40;10.20;;;8.60;99.90;;;;;;5073283;28;20476;-77
2022/10/13 03:15:44;;;;;;;17.88;9.07;;;8.70;99.90;;;;;;5073246;28;20080;-80
2022/10/13 03:18:09;;;;;;;15.85;9.02;;;8.70;99.90;;;;;;5073758;28;20044;-77
2022/10/13 03:20:35;;;;;;;17.95;9.52;;;9.10;99.90;;;;;;5073681;28;20127;-78
2022/10/13 03:23:00;;;;;;;16.58;8.55;;;8.70;99.90;;;;;;5073245;28;20040;-77
2022/10/13 03:25:27;;;;;;;15.70;9.35;;;8.70;99.90;;;;;;5073288;28;20045;-78
2022/10/13 03:27:56;;;;;;;;;;;8.70;99.90;;;;;;5076498;28;20087;-79
2022/10/13 03:30:21;;;;;;;16.58;8.90;;;8.70;99.90;;;;;;5077053;28;19920;-77
2022/10/13 03:32:47;;;;;;;18.00;8.63;;;8.80;99.90;;;;;;5075725;28;20481;-79
2022/10/13 03:35:12;;;;;;;18.23;9.73;;;8.80;99.90;;;;;;5076797;28;20044;-77
2022/10/13 03:37:38;;;;;;;14.95;8.43;;;8.80;99.90;;;;;;5076744;28;20044;-77
2022/10/13 03:40:05;;;;;;;12.55;7.88;;;8.80;99.90;;;;;;5077032;28;20088;-78
2022/10/13 03:42:30;;;;;;;17.13;9.18;;;8.80;99.90;;;;;;5076803;28;20055;-76
2022/10/13 03:44:56;;;;;;;17.80;9.93;;;8.90;99.90;;;;;;5076929;28;20044;-75
2022/10/13 03:47:22;;;;;;;16.25;8.95;;;8.90;99.90;;;;;;5077183;28;20541;-79
2022/10/13 03:49:47;;;;;;;18.55;10.50;;;8.90;99.90;;;;;;5076470;28;20040;-78
2022/10/13 03:52:13;;;;;;;18.50;9.18;;;8.90;99.90;;;;;;5076681;28;20036;-78
2022/10/13 03:54:38;;;;;;;16.20;9.07;;;8.90;99.90;;;;;;5076549;28;20087;-77
2022/10/13 03:57:04;;;;;;;17.23;10.55;;;9.00;99.90;;;;;;5076587;28;20071;-76
2022/10/13 03:59:30;;;;;;;20.63;9.85;;;9.00;99.90;;;;;;5076453;28;20117;-76
2022/10/13 04:01:55;;;;;;;19.15;10.35;;;9.00;99.90;;;;;;5076371;28;20040;-79
2022/10/13 04:04:21;;;;;;;17.52;10.13;;;9.00;99.90;;;;;;5076461;28;20541;-77
2022/10/13 04:06:46;;;;;;;17.35;10.25;;;9.10;99.90;;;;;;5076233;28;20476;-75
2022/10/13 04:09:12;;;;;;;18.95;9.55;;;9.10;99.90;;;;;;5076292;28;20063;-77
2022/10/13 04:11:38;;;;;;;22.45;11.02;;;9.10;99.90;;;;;;5076268;28;20037;-78
2022/10/13 04:14:03;;;;;;;16.13;9.93;;;9.10;99.90;;;;;;5076400;28;20040;-78
2022/10/13 04:16:30;;;;;;;21.15;9.32;;;9.20;99.90;;;;;;5076198;28;20047;-79
2022/10/13 04:19:01;;;;;;;21.15;10.25;;;9.10;99.90;;;;;;5076106;28;20052;-78
2022/10/13 04:21:29;;;;;;;21.38;10.35;;;9.10;99.90;;;;;;5076019;28;20110;-77
2022/10/13 04:23:56;;;;;;;16.40;10.15;;;9.20;99.90;;;;;;5074868;28;20049;-78
2022/10/13 04:26:23;;;;;;;20.58;11.15;;;9.20;99.90;;;;;;5075999;28;20427;-79
2022/10/13 04:28:50;;;;;;;21.23;12.23;;;9.20;99.90;;;;;;5075988;28;20090;-77
2022/10/13 04:31:17;;;;;;;20.83;10.73;;;9.20;99.90;;;;;;5075759;28;20048;-77
2022/10/13 04:33:43;;;;;;;17.90;11.77;;;9.20;99.90;;;;;;5075885;28;20040;-77
2022/10/13 04:36:11;;;;;;;18.80;10.60;;;9.20;99.90;;;;;;5075870;28;20314;-76
2022/10/13 04:38:37;;;;;;;19.20;10.90;;;9.40;99.90;;;;;;5074373;28;20056;-76
2022/10/13 04:41:03;;;;;;;21.50;10.63;;;9.20;99.90;;;;;;5075772;28;20040;-79
2022/10/13 04:43:30;;;;;;;16.40;10.95;;;9.20;99.90;;;;;;5075544;28;20057;-78
2022/10/13 04:46:18;;;;;;;19.77;11.35;;;9.30;99.90;;;;;;5075548;28;20048;-77
2022/10/13 04:48:45;;;;;;;23.58;13.50;;;9.30;99.90;;;;;;5074666;28;20602;-78
2022/10/13 04:51:13;;;;;;;21.88;11.02;;;9.30;99.90;;;;;;5075245;28;20499;-79
2022/10/13 04:53:39;;;;;;;23.75;12.20;;;9.30;99.90;;;;;;5074225;28;20064;-78
2022/10/13 04:56:08;;;;;;;23.57;11.23;;;9.30;99.90;;;;;;5075294;28;20051;-76
2022/10/13 04:58:35;;;;;;;21.48;12.55;;;9.30;99.90;;;;;;5075725;28;20045;-78
2022/10/13 05:01:02;;;;;;;23.58;11.35;;;9.50;99.90;;;;;;5075301;28;20587;-77
2022/10/13 05:03:27;;;;;;;18.17;11.15;;;9.40;99.90;;;;;;5075243;28;20094;-77
2022/10/13 05:05:53;;;;;;;18.35;11.68;;;9.40;99.90;;;;;;5075183;28;20037;-76
2022/10/13 05:08:20;;;;;;;18.70;10.95;;;9.40;99.90;;;;;;5075248;28;20036;-76
2022/10/13 05:10:59;;;;;;;26.63;14.18;;;9.50;99.90;;;;;;5074835;28;20083;-76
2022/10/13 05:13:26;;;;;;;17.83;10.98;;;9.50;99.90;;;;;;5075305;28;20037;-76
2022/10/13 05:15:52;;;;;;;18.45;10.65;;;9.50;99.90;;;;;;5073846;28;20084;-75
2022/10/13 05:18:17;;;;;;;20.45;12.00;;;9.60;99.90;;;;;;5075294;28;20087;-77
2022/10/13 05:20:50;;;;;;;21.58;12.55;;;9.50;99.90;;;;;;5074904;28;20469;-79
2022/10/13 05:23:16;;;;;;;22.55;11.73;;;9.60;99.90;;;;;;5074852;28;20476;-79
2022/10/13 05:25:44;;;;;;;23.10;12.02;;;9.60;99.90;;;;;;5074514;28;20048;-78
2022/10/13 05:28:10;;;;;;;22.25;12.82;;;9.60;99.90;;;;;;5074755;28;20052;-77
2022/10/13 05:30:35;;;;;;;19.52;11.38;;;9.70;99.90;;;;;;5074993;28;20040;-79
2022/10/13 05:33:04;;;;;;;18.50;11.45;;;9.70;99.90;;;;;;5073365;28;20040;-80
2022/10/13 05:35:29;;;;;;;19.13;12.73;;;9.70;99.90;;;;;;5074680;28;20488;-78
2022/10/13 05:37:55;;;;;;;19.90;12.00;;;10.00;99.90;;;;;;5074507;28;20491;-79
2022/10/13 05:40:20;;;;;;;20.48;12.48;;;9.70;99.90;;;;;;5074540;28;20131;-80
2022/10/13 05:42:49;;;;;;;20.67;11.15;;;9.70;99.90;;;;;;5073392;28;20080;-80
2022/10/13 05:45:15;;;;;;;18.33;12.93;;;9.70;99.90;;;;;;5074797;28;20055;-80
2022/10/13 05:47:41;;;;;;;22.38;12.38;;;9.70;99.90;;;;;;5074439;28;20055;-79
2022/10/13 05:50:07;;;;;;;19.45;11.65;;;9.70;99.90;;;;;;5073587;28;20044;-78
2022/10/13 05:52:33;;;;;;;23.37;12.83;;;9.80;99.90;;;;;;5074184;28;20067;-77
2022/10/13 05:55:02;;;;;;;20.90;12.80;;;9.80;99.90;;;;;;5073507;28;20082;-78
2022/10/13 05:57:34;;;;;;;21.35;12.23;;;9.80;99.90;;;;;;5073214;28;20116;-77
2022/10/13 06:00:00;;;;;;;21.48;13.02;;;9.80;99.90;;;;;;5074152;28;20123;-79
2022/10/13 06:02:33;;;;;;;22.75;13.38;;;9.80;99.90;;;;;;5074191;28;20123;-79
2022/10/13 06:05:03;;;;;;;22.55;12.82;;;9.80;99.90;;;;;;5074141;28;20397;-77
2022/10/13 06:07:33;;;;;;;18.75;12.57;;;9.80;99.90;;;;;;5073683;28;20051;-78
2022/10/13 06:09:58;;;;;;;18.90;12.60;;;9.80;99.90;;;;;;5074024;28;20040;-78
2022/10/13 06:12:24;;;;;;;22.98;12.00;;;9.80;99.90;;;;;;5073877;28;20051;-78
2022/10/13 06:14:50;;;;;;;21.02;13.70;;;9.80;99.90;;;;;;5073773;28;20080;-80
2022/10/13 06:17:15;;;;;;;21.10;13.45;;;9.80;99.90;;;;;;5073953;28;20091;-77
2022/10/13 06:19:41;;;;;;;22.67;12.18;;;9.80;99.90;;;;;;5073890;28;20045;-80
2022/10/13 06:22:07;;;;;;;21.77;12.77;;;9.80;99.90;;;;;;5055586;28;20456;-80
2022/10/13 06:24:33;;;;;;;23.10;13.43;;;10.00;99.90;;;;;;5073835;28;20060;-83
2022/10/13 06:26:59;;;;;;;25.25;12.82;;;9.80;99.90;;;;;;5056350;28;20040;-79
2022/10/13 06:29:24;;;;;;;21.15;13.60;;;9.80;99.90;;;;;;5073848;28;20135;-80
2022/10/13 06:31:50;;;;;;;24.85;12.50;;;9.90;99.90;;;;;;5073665;28;20053;-79
2022/10/13 06:34:15;;;;;;;29.38;14.02;;;9.90;99.90;;;;;;5073778;28;20051;-79
2022/10/13 06:36:41;;;;;;;19.40;13.35;;;9.90;99.90;;;;;;5073763;28;20462;-78
2022/10/13 06:39:07;;;;;;;22.55;12.48;;;10.00;99.90;;;;;;5074107;28;20044;-78
2022/10/13 06:41:33;;;;;;;22.73;13.82;;;10.00;99.90;;;;;;5073601;28;20044;-76
2022/10/13 06:43:59;;;;;;;23.83;12.02;;;10.00;99.90;;;;;;5073881;28;20059;-76
2022/10/13 06:46:24;;;;;;;19.58;12.43;;;10.00;99.90;;;;;;5073618;28;20106;-79
2022/10/13 06:48:50;;;;;;;24.83;14.48;;;10.00;99.90;;;;;;5073576;28;20048;-80
2022/10/13 06:51:16;;;;;;;19.48;12.02;;;10.00;99.90;;;;;;5072506;28;20044;-76
2022/10/13 06:53:42;;;;;;;21.23;13.13;;;10.00;99.90;;;;;;5073375;28;20404;-79
2022/10/13 06:56:08;;;;;;;23.40;12.93;;;10.10;99.90;;;;;;5073499;28;20040;-79
2022/10/13 06:58:37;;;;;;;24.40;13.80;;;10.30;99.90;;;;;;5073448;28;20365;-82
2022/10/13 07:01:04;;;;;;;20.80;13.80;;;10.50;99.90;;;;;;5075069;28;20037;-79
2022/10/13 07:03:30;;;;;;;23.63;13.77;;;10.10;99.90;;;;;;5077674;28;20396;-81
2022/10/13 07:06:03;;;;;;;20.85;13.13;;;10.20;99.90;;;;;;5077443;28;20131;-78
2022/10/13 07:08:30;;;;;;;21.23;12.68;;;10.20;99.90;;;;;;5078270;28;20049;-78
2022/10/13 07:10:56;;;;;;;25.40;13.70;;;10.20;99.90;;;;;;5077391;28;20048;-81
2022/10/13 07:13:22;;;;;;;26.77;12.57;;;10.30;99.90;;;;;;5077352;28;20525;-81
2022/10/13 07:15:47;;;;;;;22.58;13.07;;;10.30;99.90;;;;;;5076466;28;20131;-77
2022/10/13 07:18:13;;;;;;;21.35;13.10;;;10.30;99.90;;;;;;5075741;28;20047;-82
2022/10/13 07:20:39;;;;;;;21.42;13.13;;;10.40;99.90;;;;;;5076223;28;20054;-81
2022/10/13 07:23:04;;;;;;;22.00;12.55;;;10.40;99.90;;;;;;5077162;28;20036;-80
2022/10/13 07:25:30;;;;;;;24.92;13.18;;;10.40;99.90;;;;;;5076195;28;20482;-81
2022/10/13 07:27:57;;;;;;;22.42;13.40;;;10.50;99.90;;;;;;5073162;28;20102;-78
2022/10/13 07:30:23;;;;;;;21.30;12.80;;;10.60;99.90;;;;;;5067231;28;20441;-80
2022/10/13 07:32:48;;;;;;;21.17;12.63;;;10.60;99.90;;;;;;5074835;28;20087;-81
2022/10/13 07:35:14;;;;;;;23.88;13.40;;;11.30;99.90;;;;;;5075865;28;20048;-83
2022/10/13 07:37:40;;;;;;;25.23;14.02;;;10.90;99.90;;;;;;5075647;28;20044;-81
2022/10/13 07:40:06;;;;;;;22.13;14.50;;;10.80;99.90;;;;;;5075314;28;20049;-82
2022/10/13 07:42:32;;;;;;;21.63;13.23;;;10.90;99.90;;;;;;5075365;28;20067;-80
2022/10/13 07:44:58;;;;;;;20.80;13.40;;;11.30;99.90;;;;;;5075365;28;20056;-80
2022/10/13 07:47:24;;;;;;;22.08;13.95;;;11.00;99.90;;;;;;5075617;28;20575;-82
2022/10/13 07:49:49;;;;;;;20.08;12.75;;;10.90;99.90;;;;;;5075719;28;20473;-79
2022/10/13 07:52:15;;;;;;;26.40;14.50;;;11.10;99.90;;;;;;5059158;28;20101;-81
2022/10/13 07:54:41;;;;;;;20.77;13.60;;;11.20;99.90;;;;;;5075567;28;20090;-78
2022/10/13 07:57:06;;;;;;;22.95;13.48;;;11.20;99.90;;;;;;5075528;28;20048;-83
2022/10/13 07:59:32;;;;;;;26.45;13.70;;;11.30;99.90;;;;;;5076035;28;20147;-80
2022/10/13 08:01:59;;;;;;;21.02;13.02;;;11.40;99.90;;;;;;5075291;28;20083;-82
2022/10/13 08:04:30;;;;;;;22.98;13.18;;;11.50;99.90;;;;;;5058633;28;20048;-83
2022/10/13 08:06:55;;;;;;;19.90;14.05;;;11.70;99.90;;;;;;5075520;28;20055;-83
2022/10/13 08:09:21;;;;;;;21.40;15.52;;;11.80;99.90;;;;;;5058446;28;20400;-81
2022/10/13 08:11:46;;;;;;;23.65;14.00;;;11.90;99.90;;;;;;5058304;28;20040;-84
2022/10/13 08:14:12;;;;;;;20.13;13.02;;;12.20;99.90;;;;;;5074722;28;20519;-81
2022/10/13 08:16:40;;;;;;;23.15;14.45;;;12.00;99.90;;;;;;5075116;28;20052;-83
2022/10/13 08:19:06;;;;;;;19.48;13.13;;;12.10;99.90;;;;;;5058130;28;20048;-81
2022/10/13 08:21:31;;;;;;;20.63;13.57;;;12.10;99.90;;;;;;5072923;28;20369;-82
2022/10/13 08:23:57;;;;;;;20.55;14.70;;;11.90;99.90;;;;;;5074891;28;20044;-84
2022/10/13 08:26:26;;;;;;;26.13;14.40;;;12.20;99.90;;;;;;5075050;28;20040;-83
2022/10/13 08:28:52;;;;;;;21.45;13.52;;;12.20;99.90;;;;;;5074601;28;20048;-83
2022/10/13 08:31:18;;;;;;;22.42;12.68;;;12.80;99.90;;;;;;5075914;28;20044;-82
2022/10/13 08:33:46;;;;;;;20.85;13.23;;;12.30;99.90;;;;;;5074463;28;20485;-86
2022/10/13 08:36:13;;;;;;;21.75;13.15;;;12.30;99.90;;;;;;5074658;28;20082;-84
2022/10/13 08:38:39;;;;;;;19.17;13.18;;;12.40;99.90;;;;;;5074374;28;20097;-84
2022/10/13 08:41:18;;;;;;;22.98;15.05;;;12.40;99.90;;;;;;5074464;28;20488;-81
2022/10/13 08:43:52;;;;;;;20.33;14.07;;;12.50;99.90;;;;;;5075513;28;20091;-82
2022/10/13 08:46:24;;;;;;;21.10;12.57;;;12.50;99.90;;;;;;5074458;28;20056;-80
2022/10/13 08:48:50;;;;;;;22.20;14.95;;;12.50;99.90;;;;;;5075467;28;20101;-80
2022/10/13 08:51:16;;;;;;;20.83;13.00;;;12.50;99.90;;;;;;5074517;28;20131;-83
2022/10/13 08:53:44;;;;;;;23.48;14.80;;;12.50;99.90;;;;;;5075391;28;20087;-80
2022/10/13 08:56:28;;;;;;;20.55;15.10;;;13.00;99.90;;;;;;5074078;28;20412;-85
2022/10/13 08:58:55;;;;;;;24.83;14.57;;;12.40;99.90;;;;;;5074096;28;20041;-80
2022/10/13 09:01:29;;;;;;;22.17;13.85;;;12.50;99.90;;;;;;5074820;28;20408;-81
2022/10/13 09:04:23;;;;;;;23.42;14.35;;;12.20;99.90;;;;;;5074348;28;20048;-81
2022/10/13 09:07:04;;;;;;;26.73;14.35;;;12.50;99.90;;;;;;5074956;28;20488;-81
2022/10/13 09:09:30;;;;;;;24.48;13.43;;;12.50;99.90;;;;;;5074097;28;20071;-78
2022/10/13 09:11:57;;;;;;;23.52;14.55;;;12.50;99.90;;;;;;5073615;28;20044;-80
2022/10/13 09:14:33;;;;;;;20.20;13.35;;;12.30;99.90;;;;;;5073721;28;20044;-80
2022/10/13 09:17:18;;;;;;;24.30;14.20;;;12.60;99.90;;;;;;5073578;28;20110;-81
2022/10/13 09:20:04;;;;;;;22.77;13.02;;;12.60;99.90;;;;;;5073294;28;20037;-80
2022/10/13 09:22:38;;;;;;;22.73;14.00;;;12.60;99.90;;;;;;5090865;28;20048;-80
2022/10/13 09:25:11;;;;;;;20.83;14.05;;;12.60;99.90;;;;;;5072825;28;20147;-84
2022/10/13 09:27:56;;;;;;;25.23;17.23;;;12.70;99.90;;;;;;5074004;28;20048;-81
2022/10/13 09:30:41;;;;;;;24.88;14.25;;;12.70;99.90;;;;;;5057148;28;20133;-82
2022/10/13 09:33:10;;;;;;;20.50;14.38;;;12.80;99.90;;;;;;5073654;28;20042;-81
2022/10/13 09:35:44;;;;;;;20.63;14.77;;;12.90;99.90;;;;;;5074572;28;20128;-82
2022/10/13 09:38:22;;;;;;;22.70;12.52;;;12.70;99.90;;;;;;5073651;28;20040;-80
2022/10/13 09:41:11;;;;;;;23.30;14.68;;;13.50;99.90;;;;;;5073155;28;20127;-81
2022/10/13 09:43:46;;;;;;;23.42;15.35;;;13.10;99.90;;;;;;5070573;28;20059;-77
2022/10/13 09:46:34;;;;;;;22.70;14.77;;;13.10;99.90;;;;;;5073527;28;20052;-79
2022/10/13 09:49:19;;;;;;;22.45;14.10;;;13.20;99.90;;;;;;5056629;28;20127;-81
2022/10/13 09:51:46;;;;;;;23.23;12.70;;;13.30;99.90;;;;;;5074181;28;20140;-82
2022/10/13 09:54:23;;;;;;;21.50;14.77;;;13.40;99.90;;;;;;5073345;28;20488;-83
2022/10/13 09:56:57;;;;;;;22.27;14.70;;;13.60;99.90;;;;;;5074425;28;20048;-80
2022/10/13 09:59:50;;;;;;;23.67;15.10;;;13.70;99.90;;;;;;5073800;28;20136;-81
2022/10/13 10:02:30;;;;;;;22.35;15.40;;;13.80;99.90;;;;;;5073837;28;20123;-81
2022/10/13 10:05:03;;;;;;;24.27;15.00;;;13.90;99.90;;;;;;5073769;28;20048;-83
2022/10/13 10:07:31;;;;;;;23.08;14.93;;;14.10;99.90;;;;;;5073199;28;20429;-81
2022/10/13 10:10:03;;;;;;;21.52;14.15;;;14.10;99.90;;;;;;5072204;28;20131;-78
2022/10/13 10:12:31;;;;;;;21.73;15.43;;;14.20;99.90;;;;;;5073125;28;20037;-80
2022/10/13 10:14:57;;;;;;;19.05;14.18;;;14.40;99.90;;;;;;5072573;28;20504;-83
2022/10/13 10:17:39;;;;;;;21.13;15.40;;;14.20;99.90;;;;;;5073054;28;20094;-79
2022/10/13 10:20:54;;;;;;;20.00;15.80;;;14.30;99.90;;;;;;5051529;28;20489;-79
2022/10/13 10:23:35;;;;;;;23.17;14.70;;;14.30;99.90;;;;;;5035723;28;20478;-81
2022/10/13 10:26:24;;;;;;;18.23;15.32;;;14.60;99.90;;;;;;5035786;28;20048;-79
2022/10/13 10:29:15;;;;;;;20.92;15.57;;;14.20;99.90;;;;;;5053674;28;20076;-84
2022/10/13 10:31:58;;;;;;;22.08;15.00;;;14.20;99.90;;;;;;5053614;28;20052;-77
2022/10/13 10:34:35;;;;;;;21.10;16.35;;;14.20;99.90;;;;;;5053683;28;20123;-79
2022/10/13 10:37:44;;;;;;;22.27;16.35;;;14.30;99.90;;;;;;5052054;28;20079;-80
2022/10/13 10:40:28;;;;;;;21.83;17.67;;;14.20;99.90;;;;;;5052401;28;20037;-83
2022/10/13 10:43:02;;;;;;;21.27;17.48;;;14.30;99.90;;;;;;5069179;28;20497;-80
2022/10/13 10:45:36;;;;;;;19.40;16.70;;;14.70;99.90;;;;;;5051878;28;20068;-82
2022/10/13 10:48:26;;;;;;;23.10;18.08;;;14.50;99.90;;;;;;5053304;28;20552;-80
2022/10/13 10:50:52;;;;;;;22.38;17.77;;;14.50;99.90;;;;;;5048130;28;20492;-79
2022/10/13 10:53:30;;;;;;;22.20;17.05;;;14.70;99.90;;;;;;5053301;28;20145;-78
2022/10/13 10:56:27;;;;;;;21.40;16.13;;;14.20;99.90;;;;;;5069132;28;20496;-79
2022/10/13 10:59:01;;;;;;;21.75;15.90;;;14.60;99.90;;;;;;5054357;28;20052;-81
2022/10/13 11:02:03;;;;;;;20.60;15.95;;;14.60;99.90;;;;;;5052974;28;20515;-80
2022/10/13 11:04:46;;;;;;;20.48;16.15;;;14.60;99.90;;;;;;5062564;28;20047;-81
2022/10/13 11:07:21;;;;;;;21.63;16.45;;;15.00;99.90;;;;;;5072144;28;20041;-81
2022/10/13 11:09:46;;;;;;;20.00;16.25;;;14.50;99.90;;;;;;5072991;28;20044;-82
2022/10/13 11:12:18;;;;;;;18.43;16.10;;;14.50;99.90;;;;;;5063404;28;20461;-81
2022/10/13 11:14:46;;;;;;;21.35;16.70;;;14.50;99.90;;;;;;5053258;28;20131;-85
2022/10/13 11:17:18;;;;;;;19.88;16.67;;;14.50;99.90;;;;;;5052285;28;20049;-81
2022/10/13 11:19:46;;;;;;;22.98;17.67;;;14.50;99.90;;;;;;5052460;28;20037;-80
2022/10/13 11:22:17;;;;;;;24.05;18.33;;;14.40;99.90;;;;;;5051950;28;20397;-82
2022/10/13 11:24:51;;;;;;;21.17;17.63;;;14.30;99.90;;;;;;5052229;28;20520;-82
2022/10/13 11:27:26;;;;;;;23.92;18.23;;;14.40;99.90;;;;;;5053204;28;20102;-83
2022/10/13 11:29:59;;;;;;;22.23;17.70;;;14.30;99.90;;;;;;5052289;28;20480;-82
2022/10/13 11:32:25;;;;;;;23.10;19.05;;;14.20;99.90;;;;;;5051724;28;20049;-82
2022/10/13 11:35:00;;;;;;;24.57;18.70;;;14.20;99.90;;;;;;5051949;28;20159;-83
2022/10/13 11:37:50;;;;;;;23.80;19.15;;;14.10;99.90;;;;;;5052913;28;20044;-83
2022/10/13 11:40:42;;;;;;;21.55;18.77;;;14.10;99.90;;;;;;5035563;28;20055;-82
2022/10/13 11:43:14;;;;;;;21.48;18.73;;;14.10;99.90;;;;;;5052730;28;20045;-81
2022/10/13 11:45:45;;;;;;;22.23;17.38;;;14.00;99.90;;;;;;5053098;28;20499;-84
2022/10/13 11:48:43;;;;;;;21.52;17.25;;;14.00;99.90;;;;;;5054658;28;20045;-81
2022/10/13 11:51:22;;;;;;;22.25;17.65;;;14.00;99.90;;;;;;5056500;28;20076;-80
2022/10/13 11:54:15;;;;;;;21.33;16.67;;;13.90;99.90;;;;;;5071128;28;20037;-83
2022/10/13 11:56:49;;;;;;;23.73;17.92;;;13.90;99.90;;;;;;5056758;28;20131;-87
2022/10/13 11:59:36;;;;;;;24.90;16.67;;;13.90;99.90;;;;;;5057328;28;20091;-86
2022/10/13 12:02:10;;;;;;;25.77;20.17;;;13.90;99.90;;;;;;5038860;28;20099;-84
2022/10/13 12:04:37;;;;;;;23.73;18.48;;;13.80;99.90;;;;;;5056337;28;20049;-84
2022/10/13 12:07:06;;;;;;;24.58;18.75;;;14.30;99.90;;;;;;5056753;28;20128;-89
2022/10/13 12:09:35;;;;;;;24.20;18.13;;;14.40;99.90;;;;;;5039081;28;20049;-82
2022/10/13 12:12:13;;;;;;;23.60;18.33;;;13.80;99.90;;;;;;5055236;28;20102;-83
2022/10/13 12:14:44;;;;;;;23.27;18.15;;;14.30;99.90;;;;;;5055406;28;20037;-80
2022/10/13 12:17:20;;;;;;;21.38;18.33;;;13.70;99.90;;;;;;5056304;28;20037;-81
2022/10/13 12:19:46;;;;;;;26.90;19.88;;;13.70;99.90;;;;;;5056062;28;20055;-86
2022/10/13 12:22:12;;;;;;;26.10;20.42;;;13.70;99.90;;;;;;5055356;28;20087;-86
2022/10/13 12:24:38;;;;;;;27.05;20.67;;;13.90;99.90;;;;;;5056511;28;20041;-85
2022/10/13 12:27:20;;;;;;;26.52;20.77;;;13.80;99.90;;;;;;5056444;28;20481;-83
2022/10/13 12:29:46;;;;;;;25.90;21.02;;;13.60;99.90;;;;;;5055768;28;20045;-84
2022/10/13 12:32:24;;;;;;;29.23;22.07;;;13.50;99.90;;;;;;5055062;28;20045;-85
2022/10/13 12:34:50;;;;;;;28.92;22.42;;;13.70;99.90;;;;;;5038481;28;20288;-86
2022/10/13 12:37:27;;;;;;;31.30;22.00;;;13.50;99.90;;;;;;5055134;28;20067;-83
2022/10/13 12:39:54;;;;;;;30.33;22.10;;;13.70;99.90;;;;;;5055866;28;20041;-83
2022/10/13 12:42:25;;;;;;;28.48;22.15;;;13.70;99.90;;;;;;5054560;28;20283;-83
2022/10/13 12:44:50;;;;;;;32.90;24.40;;;13.70;99.90;;;;;;5055472;28;20056;-84
2022/10/13 12:47:44;;;;;;;32.13;24.20;;;13.70;99.90;;;;;;5055600;28;20545;-85
2022/10/13 12:50:28;;;;;;;31.13;22.60;;;13.70;99.90;;;;;;5055594;28;20136;-89
2022/10/13 12:53:20;;;;;;;30.35;23.10;;;13.70;99.90;;;;;;5037791;28;20439;-84
2022/10/13 12:55:54;;;;;;;27.73;22.85;;;13.80;99.90;;;;;;5055521;28;20568;-84